createdAt,value
2019-04-03T00:01:42.275Z,36.50
2019-04-03T00:04:12.712Z,38.63
2019-04-03T00:06:43.163Z,37.43
2019-04-03T00:09:13.560Z,38.20
2019-04-03T00:11:43.962Z,35.77
2019-04-03T00:14:14.422Z,39.33
2019-04-03T00:16:45.581Z,41.60
2019-04-03T00:19:17.704Z,41.68
2019-04-03T00:21:48.742Z,39.33
2019-04-03T00:24:22.581Z,39.80
2019-04-03T00:26:52.947Z,41.50
2019-04-03T00:29:23.399Z,39.87
2019-04-03T00:31:53.979Z,41.20
2019-04-03T00:34:24.350Z,41.00
2019-04-03T00:36:54.956Z,41.97
2019-04-03T00:39:25.396Z,41.23
2019-04-03T00:41:55.924Z,42.97
2019-04-03T00:44:26.374Z,44.20
2019-04-03T00:46:56.551Z,44.47
2019-04-03T00:49:26.831Z,43.70
2019-04-03T00:51:58.037Z,40.27
2019-04-03T00:54:30.671Z,42.07
2019-04-03T00:57:00.541Z,40.23
2019-04-03T00:59:31.027Z,48.43
2019-04-03T01:02:01.191Z,40.70
2019-04-03T01:04:31.408Z,41.40
2019-04-03T01:07:01.561Z,42.97
2019-04-03T01:09:31.779Z,41.80
2019-04-03T01:12:02.194Z,45.13
2019-04-03T01:14:32.358Z,47.33
2019-04-03T01:17:04.392Z,42.43
2019-04-03T01:19:36.035Z,45.13
2019-04-03T01:22:08.050Z,45.67
2019-04-03T01:24:39.017Z,48.53
2019-04-03T01:27:11.188Z,46.17
2019-04-03T01:29:42.892Z,47.03
2019-04-03T01:32:15.148Z,51.20
2019-04-03T01:34:47.718Z,49.77
2019-04-03T01:37:19.167Z,47.83
2019-04-03T01:39:50.838Z,50.10
2019-04-03T01:42:22.457Z,48.95
2019-04-03T01:44:55.091Z,50.83
2019-04-03T01:47:27.457Z,54.13
2019-04-03T01:49:56.838Z,50.43
2019-04-03T01:52:31.101Z,50.17
2019-04-03T01:55:03.366Z,49.73
2019-04-03T01:57:32.772Z,51.40
2019-04-03T02:00:02.980Z,49.50
2019-04-03T02:02:33.235Z,53.30
2019-04-03T02:05:03.427Z,50.73
2019-04-03T02:07:33.491Z,51.80
2019-04-03T02:10:03.839Z,53.30
2019-04-03T02:12:33.980Z,53.60
2019-04-03T02:15:04.264Z,56.30
2019-04-03T02:17:34.423Z,49.93
2019-04-03T02:20:04.814Z,53.27
2019-04-03T02:22:34.867Z,56.77
2019-04-03T02:25:05.498Z,53.30
2019-04-03T02:27:35.920Z,58.70
2019-04-03T02:30:07.366Z,50.47
2019-04-03T02:32:37.482Z,53.17
2019-04-03T02:35:08.474Z,58.13
2019-04-03T02:37:38.942Z,50.17
2019-04-03T02:40:09.681Z,52.83
2019-04-03T02:42:41.562Z,56.27
2019-04-03T02:45:11.897Z,50.65
2019-04-03T02:47:42.132Z,58.93
2019-04-03T02:50:14.402Z,53.58
2019-04-03T02:52:44.283Z,49.80
2019-04-03T02:55:14.546Z,51.75
2019-04-03T02:57:48.745Z,50.10
2019-04-03T03:00:16.652Z,47.17
2019-04-03T03:02:47.284Z,51.17
2019-04-03T03:05:17.409Z,50.30
2019-04-03T03:07:47.853Z,46.53
2019-04-03T03:10:19.203Z,49.85
2019-04-03T03:12:50.084Z,45.43
2019-04-03T03:15:20.947Z,47.10
2019-04-03T03:17:54.450Z,44.67
2019-04-03T03:20:25.112Z,42.87
2019-04-03T03:22:57.505Z,40.10
2019-04-03T03:25:28.022Z,37.67
2019-04-03T03:27:58.503Z,41.53
2019-04-03T03:30:41.083Z,39.90
2019-04-03T03:33:24.554Z,41.10
2019-04-03T03:35:44.401Z,38.93
2019-04-03T03:38:11.726Z,40.20
2019-04-03T03:40:47.109Z,40.23
2019-04-03T03:43:15.564Z,44.90
2019-04-03T03:45:46.080Z,42.13
2019-04-03T03:48:16.490Z,42.87
2019-04-03T03:50:47.866Z,43.60
2019-04-03T03:53:18.342Z,46.90
2019-04-03T03:55:49.100Z,46.17
2019-04-03T03:58:20.528Z,48.07
2019-04-03T04:00:52.202Z,49.00
2019-04-03T04:03:23.018Z,48.30
2019-04-03T04:05:55.398Z,43.50
2019-04-03T04:08:25.549Z,45.00
2019-04-03T04:10:59.593Z,47.23
2019-04-03T04:13:30.183Z,52.63
2019-04-03T04:16:03.911Z,51.10
2019-04-03T04:18:33.112Z,50.60
2019-04-03T04:21:04.693Z,52.43
2019-04-03T04:23:35.150Z,54.23
2019-04-03T04:26:06.812Z,51.53
2019-04-03T04:28:39.506Z,51.87
2019-04-03T04:31:12.283Z,51.50
2019-04-03T04:33:41.794Z,50.20
2019-04-03T04:36:12.105Z,52.40
2019-04-03T04:38:42.462Z,50.33
2019-04-03T04:41:12.704Z,50.33
2019-04-03T04:43:43.049Z,52.57
2019-04-03T04:46:13.507Z,54.75
2019-04-03T04:48:52.071Z,52.93
2019-04-03T04:51:31.682Z,54.42
2019-04-03T04:54:01.820Z,57.17
2019-04-03T04:57:21.914Z,59.70
2019-04-03T05:00:01.943Z,58.83
2019-04-03T05:02:32.265Z,56.50
2019-04-03T05:05:04.075Z,57.07
2019-04-03T05:07:34.268Z,60.00
2019-04-03T05:10:05.865Z,59.27
2019-04-03T05:12:38.789Z,56.73
2019-04-03T05:15:09.825Z,55.97
2019-04-03T05:17:40.702Z,62.93
2019-04-03T05:20:11.237Z,62.38
2019-04-03T05:22:41.742Z,68.37
2019-04-03T05:25:12.295Z,57.93
2019-04-03T05:27:42.736Z,62.03
2019-04-03T05:30:15.076Z,61.73
2019-04-03T05:32:45.515Z,62.03
2019-04-03T05:35:15.963Z,60.10
2019-04-03T05:37:46.353Z,63.90
2019-04-03T05:40:16.851Z,65.63
2019-04-03T05:42:47.509Z,63.90
2019-04-03T05:45:21.562Z,61.63
2019-04-03T05:47:52.182Z,69.73
2019-04-03T05:50:22.675Z,63.50
2019-04-03T05:52:53.050Z,70.17
2019-04-03T05:55:23.276Z,63.93
2019-04-03T05:57:53.504Z,66.23
2019-04-03T06:00:24.018Z,68.37
2019-04-03T06:02:57.046Z,65.00
2019-04-03T06:05:25.966Z,68.30
2019-04-03T06:07:56.267Z,68.53
2019-04-03T06:10:27.902Z,73.13
2019-04-03T06:12:58.392Z,78.47
2019-04-03T06:15:28.525Z,79.43
2019-04-03T06:17:58.683Z,76.93
2019-04-03T06:20:28.884Z,74.60
2019-04-03T06:22:59.032Z,71.23
2019-04-03T06:25:30.625Z,63.57
2019-04-03T06:28:01.018Z,64.23
2019-04-03T06:30:31.553Z,61.57
2019-04-03T06:33:02.241Z,64.75
2019-04-03T06:35:34.772Z,55.90
2019-04-03T06:38:04.517Z,56.43
2019-04-03T06:40:35.531Z,54.40
2019-04-03T06:43:06.671Z,64.32
2019-04-03T06:45:36.746Z,52.13
2019-04-03T06:48:06.881Z,51.20
2019-04-03T06:50:37.478Z,49.97
2019-04-03T06:53:07.734Z,51.80
2019-04-03T06:55:38.002Z,52.50
2019-04-03T06:58:10.956Z,51.97
2019-04-03T07:00:40.148Z,51.73
2019-04-03T07:03:10.304Z,47.83
2019-04-03T07:05:41.678Z,50.17
2019-04-03T07:08:12.896Z,48.23
2019-04-03T07:10:54.593Z,49.27
2019-04-03T07:13:15.479Z,46.40
2019-04-03T07:15:48.862Z,46.83
2019-04-03T07:18:19.100Z,46.80
2019-04-03T07:20:51.280Z,45.73
2019-04-03T07:23:26.105Z,43.83
2019-04-03T07:26:06.654Z,44.00
2019-04-03T07:28:37.359Z,44.40
2019-04-03T07:31:12.814Z,44.10
2019-04-03T07:33:43.326Z,45.30
2019-04-03T07:36:15.963Z,44.97
2019-04-03T07:38:46.226Z,40.27
2019-04-03T07:41:22.082Z,42.55
2019-04-03T07:43:51.162Z,39.23
2019-04-03T07:46:21.218Z,42.70
2019-04-03T07:48:53.899Z,39.80
2019-04-03T07:51:24.231Z,36.80
2019-04-03T07:53:54.432Z,38.10
2019-04-03T07:56:25.876Z,39.27
2019-04-03T07:58:56.719Z,39.47
2019-04-03T08:01:27.006Z,37.00
2019-04-03T08:03:57.413Z,34.30
2019-04-03T08:06:27.909Z,37.47
2019-04-03T08:09:07.223Z,32.23
2019-04-03T08:14:13.318Z,33.73
2019-04-03T08:16:43.927Z,30.27
2019-04-03T08:19:14.160Z,28.12
2019-04-03T08:21:46.532Z,28.37
2019-04-03T08:24:21.277Z,24.13
2019-04-03T08:26:52.226Z,24.83
2019-04-03T08:29:22.867Z,23.98
2019-04-03T08:31:53.055Z,24.40
2019-04-03T08:34:23.398Z,24.60
2019-04-03T08:36:53.644Z,22.00
2019-04-03T08:39:23.942Z,21.60
2019-04-03T08:41:56.026Z,22.43
2019-04-03T08:44:26.287Z,25.90
2019-04-03T08:46:56.574Z,23.17
2019-04-03T08:49:26.779Z,21.87
2019-04-03T08:51:58.530Z,21.80
2019-04-03T08:54:28.838Z,19.43
2019-04-03T08:56:59.066Z,22.32
2019-04-03T08:59:29.662Z,20.30
2019-04-03T09:01:59.895Z,20.97
2019-04-03T09:04:30.355Z,20.93
2019-04-03T09:07:00.830Z,20.47
2019-04-03T09:09:31.052Z,19.90
2019-04-03T09:12:01.472Z,17.93
2019-04-03T09:14:31.835Z,20.17
2019-04-03T09:17:09.243Z,22.93
2019-04-03T09:19:41.770Z,21.80
2019-04-03T09:22:11.429Z,21.12
2019-04-03T09:24:41.866Z,21.80
2019-04-03T09:27:12.050Z,20.13
2019-04-03T09:29:42.929Z,23.03
2019-04-03T09:32:14.744Z,18.13
2019-04-03T09:34:45.746Z,17.20
2019-04-03T09:37:18.166Z,18.67
2019-04-03T09:39:48.002Z,17.80
2019-04-03T09:42:21.243Z,18.87
2019-04-03T09:44:51.972Z,18.30
2019-04-03T09:47:22.178Z,21.17
2019-04-03T09:49:52.553Z,19.63
2019-04-03T09:52:23.660Z,20.83
2019-04-03T09:54:54.396Z,23.00
2019-04-03T09:57:24.565Z,24.05
2019-04-03T09:59:54.812Z,23.07
2019-04-03T10:02:25.057Z,22.17
2019-04-03T10:04:57.270Z,22.10
2019-04-03T10:07:27.138Z,23.00
2019-04-03T10:09:57.302Z,21.90
2019-04-03T10:12:27.476Z,22.80
2019-04-03T10:15:00.226Z,20.97
2019-04-03T10:17:31.309Z,21.12
2019-04-03T10:20:01.625Z,21.30
2019-04-03T10:22:32.640Z,20.47
2019-04-03T10:25:05.477Z,21.63
2019-04-03T10:27:36.930Z,22.20
2019-04-03T10:30:13.001Z,19.80
2019-04-03T10:32:43.515Z,19.50
2019-04-03T10:35:14.266Z,22.00
2019-04-03T10:37:46.297Z,21.43
2019-04-03T10:40:18.231Z,21.00
2019-04-03T10:42:48.506Z,17.57
2019-04-03T10:45:19.107Z,17.07
2019-04-03T10:47:49.271Z,17.13
2019-04-03T10:50:19.693Z,18.30
2019-04-03T10:52:52.135Z,20.10
2019-04-03T10:55:22.664Z,15.70
2019-04-03T10:57:52.945Z,14.77
2019-04-03T11:00:24.884Z,16.63
2019-04-03T11:02:55.308Z,17.83
2019-04-03T11:05:26.078Z,18.50
2019-04-03T11:07:56.495Z,17.33
2019-04-03T11:10:26.622Z,16.30
2019-04-03T11:12:58.976Z,14.87
2019-04-03T11:15:29.194Z,15.73
2019-04-03T11:17:59.534Z,18.37
2019-04-03T11:20:29.687Z,16.67
2019-04-03T11:23:06.338Z,18.23
2019-04-03T11:25:31.904Z,15.13
2019-04-03T11:28:06.311Z,18.20
2019-04-03T11:30:36.790Z,16.43
2019-04-03T11:33:07.088Z,15.80
2019-04-03T11:35:37.372Z,17.73
2019-04-03T11:38:14.132Z,16.40
2019-04-03T11:40:42.848Z,17.97
2019-04-03T11:43:13.145Z,16.63
2019-04-03T11:45:43.354Z,15.83
2019-04-03T11:48:14.900Z,18.70
2019-04-03T11:50:45.585Z,16.60
2019-04-03T11:53:15.897Z,18.60
2019-04-03T11:55:46.090Z,16.70
2019-04-03T11:58:19.812Z,15.70
2019-04-03T12:00:50.294Z,16.13
2019-04-03T12:03:20.851Z,14.40
2019-04-03T12:05:51.438Z,16.03
2019-04-03T12:08:21.865Z,16.62
2019-04-03T12:10:52.157Z,14.53
2019-04-03T12:13:22.308Z,16.23
2019-04-03T12:15:53.645Z,12.37
2019-04-03T12:18:25.631Z,13.10
2019-04-03T12:20:55.866Z,13.97
2019-04-03T12:23:27.504Z,13.27
2019-04-03T12:25:58.116Z,12.85
2019-04-03T12:28:28.406Z,11.23
2019-04-03T12:30:58.766Z,11.93
2019-04-03T12:33:33.442Z,11.00
2019-04-03T12:36:06.880Z,10.57
2019-04-03T12:38:37.624Z,11.13
2019-04-03T12:41:09.855Z,10.90
2019-04-03T12:43:40.788Z,11.07
2019-04-03T12:46:10.974Z,10.23
2019-04-03T12:48:41.143Z,10.17
2019-04-03T12:51:11.280Z,9.18
2019-04-03T12:53:44.714Z,9.40
2019-04-03T12:56:23.936Z,9.50
2019-04-03T12:58:53.425Z,11.63
2019-04-03T13:01:23.797Z,8.87
2019-04-03T13:03:56.054Z,10.03
2019-04-03T13:06:27.904Z,9.03
2019-04-03T13:09:12.121Z,9.83
2019-04-03T13:11:42.368Z,12.53
2019-04-03T13:14:24.237Z,9.00
2019-04-03T13:16:47.633Z,11.37
2019-04-03T13:19:18.894Z,9.60
2019-04-03T13:21:49.269Z,9.70
2019-04-03T13:24:20.604Z,8.40
2019-04-03T13:26:53.940Z,9.38
2019-04-03T13:29:24.310Z,8.68
2019-04-03T13:31:54.954Z,11.30
2019-04-03T13:34:32.539Z,8.53
2019-04-03T13:37:03.145Z,9.08
2019-04-03T13:39:34.257Z,9.87
2019-04-03T13:42:07.881Z,9.33
2019-04-03T13:44:38.059Z,10.10
2019-04-03T13:47:09.249Z,11.23
2019-04-03T13:49:40.051Z,9.83
2019-04-03T13:52:10.745Z,10.70
2019-04-03T13:54:41.136Z,10.53
2019-04-03T13:57:11.872Z,10.38
2019-04-03T13:59:43.985Z,11.00
2019-04-03T14:02:15.097Z,10.20
2019-04-03T14:04:48.359Z,11.73
2019-04-03T14:07:17.701Z,11.50
2019-04-03T14:09:52.628Z,11.43
2019-04-03T14:12:20.146Z,15.53
2019-04-03T14:14:50.524Z,15.10
2019-04-03T14:17:21.193Z,13.98
2019-04-03T14:19:52.734Z,14.60
2019-04-03T14:22:23.797Z,16.30
2019-04-03T14:24:54.126Z,14.23
2019-04-03T14:27:28.984Z,15.10
2019-04-03T14:29:58.731Z,14.07
2019-04-03T14:32:28.650Z,14.03
2019-04-03T14:35:06.587Z,15.70
2019-04-03T14:37:31.049Z,14.80
2019-04-03T14:40:01.257Z,16.17
2019-04-03T14:42:31.860Z,14.80
2019-04-03T14:45:04.044Z,17.40
2019-04-03T14:47:34.254Z,17.43
2019-04-03T14:50:08.123Z,14.60
2019-04-03T14:52:38.545Z,17.60
2019-04-03T14:55:18.572Z,16.60
2019-04-03T14:57:44.573Z,15.20
2019-04-03T15:00:27.412Z,16.32
2019-04-03T15:02:57.520Z,15.67
2019-04-03T15:05:27.727Z,15.17
2019-04-03T15:08:00.845Z,14.97
2019-04-03T15:13:13.672Z,15.67
2019-04-03T15:15:43.762Z,15.80
2019-04-03T15:18:14.345Z,13.47
2019-04-03T15:20:44.887Z,14.00
2019-04-03T15:23:15.329Z,14.18
2019-04-03T15:25:51.717Z,14.93
2019-04-03T15:28:27.963Z,14.58
2019-04-03T15:31:00.906Z,14.77
2019-04-03T15:33:34.072Z,13.97
2019-04-03T15:36:04.799Z,16.13
2019-04-03T15:38:35.293Z,13.63
2019-04-03T15:41:05.988Z,15.17
2019-04-03T15:43:37.084Z,12.57
2019-04-03T15:46:07.580Z,13.10
2019-04-03T15:48:40.923Z,15.20
2019-04-03T15:51:10.362Z,15.07
2019-04-03T15:53:40.878Z,14.97
2019-04-03T15:56:12.972Z,14.70
2019-04-03T15:58:43.424Z,16.60
2019-04-03T16:01:13.809Z,17.47
2019-04-03T16:03:44.299Z,15.93
2019-04-03T16:06:14.839Z,16.93
2019-04-03T16:08:47.390Z,19.33
2019-04-03T16:11:17.188Z,15.48
2019-04-03T16:13:48.124Z,16.13
2019-04-03T16:16:18.698Z,14.37
2019-04-03T16:18:48.967Z,15.93
2019-04-03T16:21:19.920Z,17.30
2019-04-03T16:23:51.508Z,16.00
2019-04-03T16:26:23.791Z,17.07
2019-04-03T16:28:56.260Z,18.50
2019-04-03T16:31:26.210Z,18.10
2019-04-03T16:36:33.570Z,16.60
2019-04-03T16:39:06.047Z,17.20
2019-04-03T16:41:38.230Z,16.80
2019-04-03T16:44:08.685Z,18.63
2019-04-03T16:46:39.879Z,17.13
2019-04-03T16:49:11.163Z,19.12
2019-04-03T16:51:41.345Z,19.80
2019-04-03T16:54:12.686Z,19.87
2019-04-03T16:56:42.970Z,19.00
2019-04-03T16:59:13.155Z,18.47
2019-04-03T17:01:45.620Z,19.23
2019-04-03T17:04:25.007Z,18.40
2019-04-03T17:06:49.540Z,20.27
2019-04-03T17:09:19.930Z,21.53
2019-04-03T17:11:50.187Z,20.87
2019-04-03T17:14:23.147Z,20.95
2019-04-03T17:16:52.739Z,21.40
2019-04-03T17:19:25.880Z,20.97
2019-04-03T17:21:56.073Z,23.40
2019-04-03T17:24:26.249Z,21.77
2019-04-03T17:26:58.960Z,20.20
2019-04-03T17:29:28.345Z,17.93
2019-04-03T17:31:58.894Z,19.13
2019-04-03T17:34:43.041Z,20.53
2019-04-03T17:37:13.718Z,21.62
2019-04-03T17:39:43.919Z,19.73
2019-04-03T17:42:14.140Z,20.85
2019-04-03T17:44:44.752Z,21.23
2019-04-03T17:47:15.569Z,20.72
2019-04-03T17:49:45.877Z,19.00
2019-04-03T17:52:16.145Z,20.57
2019-04-03T17:54:46.609Z,20.13
2019-04-03T17:57:17.584Z,21.73
2019-04-03T17:59:49.450Z,21.90
2019-04-03T18:02:20.192Z,23.17
2019-04-03T18:04:51.197Z,26.20
2019-04-03T18:07:21.788Z,20.80
2019-04-03T18:09:52.549Z,21.70
2019-04-03T18:12:23.067Z,21.50
2019-04-03T18:17:38.528Z,22.53
2019-04-03T18:20:12.533Z,21.65
2019-04-03T18:22:42.932Z,23.87
2019-04-03T18:25:14.410Z,22.75
2019-04-03T18:27:44.998Z,23.13
2019-04-03T18:30:16.150Z,24.52
2019-04-03T18:32:46.699Z,25.53
2019-04-03T18:35:17.404Z,23.97
2019-04-03T18:37:49.810Z,27.63
2019-04-03T18:40:20.420Z,24.40
2019-04-03T18:42:51.069Z,24.47
2019-04-03T18:45:25.418Z,24.17
2019-04-03T18:47:53.876Z,26.23
2019-04-03T18:52:53.337Z,24.20
2019-04-03T18:55:23.873Z,26.95
2019-04-03T18:58:17.172Z,28.93
2019-04-03T19:00:55.704Z,25.20
2019-04-03T19:03:26.125Z,23.67
2019-04-03T19:05:56.529Z,26.80
2019-04-03T19:11:09.277Z,28.73
2019-04-03T19:13:38.789Z,28.40
2019-04-03T19:16:09.363Z,26.40
2019-04-03T19:18:39.845Z,25.17
2019-04-03T19:21:23.776Z,26.43
2019-04-03T19:23:49.784Z,27.17
2019-04-03T19:26:16.755Z,29.30
2019-04-03T19:28:47.333Z,26.03
2019-04-03T19:31:17.886Z,27.03
2019-04-03T19:33:50.131Z,26.90
2019-04-03T19:36:21.710Z,27.22
2019-04-03T19:38:53.615Z,28.73
2019-04-03T19:41:24.235Z,29.12
2019-04-03T19:43:54.736Z,31.50
2019-04-03T19:46:25.261Z,29.57
2019-04-03T19:48:56.772Z,26.97
2019-04-03T19:51:27.955Z,23.70
2019-04-03T19:53:59.797Z,28.07
2019-04-03T19:56:30.532Z,25.10
2019-04-03T19:59:00.894Z,27.80
2019-04-03T20:01:31.417Z,23.43
2019-04-03T20:04:01.845Z,24.77
2019-04-03T20:06:32.479Z,18.93
2019-04-03T20:09:04.798Z,19.37
2019-04-03T20:11:35.908Z,20.03
2019-04-03T20:14:07.559Z,20.20
2019-04-03T20:16:37.875Z,20.37
2019-04-03T20:19:08.394Z,20.30
2019-04-03T20:21:39.043Z,20.67
2019-04-03T20:24:12.534Z,23.13
2019-04-03T20:26:41.727Z,21.67
2019-04-03T20:29:12.181Z,25.20
2019-04-03T20:31:42.627Z,24.87
2019-04-03T20:34:17.910Z,24.70
2019-04-03T20:36:51.012Z,26.70
2019-04-03T20:39:20.817Z,24.87
2019-04-03T20:41:52.924Z,26.10
2019-04-03T20:44:23.721Z,25.35
2019-04-03T20:46:56.027Z,26.70
2019-04-03T20:49:28.070Z,21.77
2019-04-03T20:51:58.662Z,29.25
2019-04-03T20:54:29.419Z,25.20
2019-04-03T20:57:02.307Z,21.07
2019-04-03T20:59:32.221Z,19.77
2019-04-03T21:02:02.927Z,20.33
2019-04-03T21:04:33.453Z,19.73
2019-04-03T21:07:04.082Z,18.13
2019-04-03T21:09:34.721Z,21.20
2019-04-03T21:12:05.652Z,18.50
2019-04-03T21:14:36.221Z,18.87
2019-04-03T21:17:06.771Z,20.20
2019-04-03T21:19:37.445Z,20.80
2019-04-03T21:22:08.011Z,21.87
2019-04-03T21:24:38.792Z,22.23
2019-04-03T21:27:09.446Z,23.97
2019-04-03T21:29:40.054Z,26.70
2019-04-03T21:32:10.777Z,27.03
2019-04-03T21:34:42.824Z,28.93
2019-04-03T21:37:14.117Z,24.87
2019-04-03T21:39:44.904Z,28.13
2019-04-03T21:42:15.397Z,28.23
2019-04-03T21:44:45.914Z,26.87
2019-04-03T21:47:16.365Z,27.13
2019-04-03T21:49:47.686Z,28.03
2019-04-03T21:52:18.515Z,30.50
2019-04-03T21:54:49.079Z,31.00
2019-04-03T21:57:19.666Z,31.23
2019-04-03T21:59:51.961Z,32.60
2019-04-03T22:02:22.489Z,29.03
2019-04-03T22:04:53.871Z,32.90
2019-04-03T22:07:24.877Z,27.93
2019-04-03T22:09:55.415Z,35.87
2019-04-03T22:12:25.913Z,37.20
2019-04-03T22:14:56.471Z,40.23
2019-04-03T22:17:27.318Z,38.10
2019-04-03T22:19:58.584Z,31.63
2019-04-03T22:22:29.677Z,29.13
2019-04-03T22:25:00.741Z,26.62
2019-04-03T22:27:31.273Z,28.43
2019-04-03T22:30:01.426Z,27.43
2019-04-03T22:32:31.516Z,28.87
2019-04-03T22:35:01.692Z,27.27
2019-04-03T22:37:33.234Z,28.77
2019-04-03T22:40:04.085Z,28.03
2019-04-03T22:42:34.214Z,27.30
2019-04-03T22:45:04.646Z,27.93
2019-04-03T22:47:35.085Z,29.37
2019-04-03T22:50:05.809Z,25.80
2019-04-03T22:52:36.071Z,31.70
2019-04-03T22:55:06.541Z,33.60
2019-04-03T22:57:36.743Z,28.67
2019-04-03T23:00:07.358Z,33.43
2019-04-03T23:02:37.566Z,32.53
2019-04-03T23:05:07.812Z,38.23
2019-04-03T23:07:37.941Z,33.90
2019-04-03T23:10:08.692Z,32.90
2019-04-03T23:12:38.865Z,34.80
2019-04-03T23:15:09.631Z,37.20
2019-04-03T23:17:40.007Z,37.10
2019-04-03T23:20:10.183Z,35.30
2019-04-03T23:22:40.249Z,37.10
2019-04-03T23:25:10.466Z,43.17
2019-04-03T23:27:40.645Z,37.83
2019-04-03T23:30:11.463Z,41.75
2019-04-03T23:32:41.690Z,41.97
2019-04-03T23:35:11.919Z,43.87
2019-04-03T23:37:42.139Z,42.03
2019-04-03T23:40:12.427Z,48.67
2019-04-03T23:42:42.590Z,44.73
2019-04-03T23:45:13.411Z,43.60
2019-04-03T23:47:45.100Z,48.57
2019-04-03T23:50:15.493Z,46.63
2019-04-03T23:52:46.374Z,54.23
2019-04-03T23:55:16.628Z,51.10
2019-04-03T23:57:46.779Z,53.97
